createdAt,value
2019-04-05T00:00:31.965Z,7.21
2019-04-05T00:01:32.203Z,7.32
2019-04-05T00:02:31.944Z,7.24
2019-04-05T00:03:31.937Z,7.24
2019-04-05T00:04:32.173Z,7.24
2019-04-05T00:05:32.179Z,7.28
2019-04-05T00:06:32.163Z,7.25
2019-04-05T00:07:32.151Z,7.17
2019-04-05T00:08:32.150Z,7.17
2019-04-05T00:09:31.895Z,7.25
2019-04-05T00:10:32.142Z,7.2
2019-04-05T00:11:32.187Z,7.17
2019-04-05T00:12:32.122Z,7.1
2019-04-05T00:13:31.618Z,7.13
2019-04-05T00:14:32.110Z,7.18
2019-04-05T00:15:31.853Z,7.14
2019-04-05T00:16:31.872Z,7.14
2019-04-05T00:17:31.843Z,7.15
2019-04-05T00:18:32.090Z,7.17
2019-04-05T00:19:32.084Z,7.15
2019-04-05T00:20:32.138Z,7.13
2019-04-05T00:21:32.054Z,7.15
2019-04-05T00:22:32.060Z,7.06
2019-04-05T00:23:32.045Z,7.02
2019-04-05T00:24:31.796Z,7.11
2019-04-05T00:25:32.035Z,7.03
2019-04-05T00:26:32.036Z,7.02
2019-04-05T00:27:32.028Z,7.05
2019-04-05T00:28:31.753Z,7.06
2019-04-05T00:29:31.755Z,7.02
2019-04-05T00:30:31.997Z,7.06
2019-04-05T00:31:32.004Z,6.99
2019-04-05T00:32:31.978Z,6.96
2019-04-05T00:33:31.740Z,7.03
2019-04-05T00:34:31.963Z,7.06
2019-04-05T00:35:31.741Z,6.99
2019-04-05T00:36:31.963Z,7
2019-04-05T00:37:31.690Z,7
2019-04-05T00:38:31.932Z,6.99
2019-04-05T00:39:31.676Z,6.95
2019-04-05T00:40:31.679Z,6.93
2019-04-05T00:41:33.093Z,6.89
2019-04-05T00:42:31.663Z,6.88
2019-04-05T00:43:31.654Z,6.89
2019-04-05T00:44:31.417Z,6.92
2019-04-05T00:45:33.258Z,6.84
2019-04-05T00:46:31.885Z,6.93
2019-04-05T00:47:31.872Z,6.89
2019-04-05T00:48:31.664Z,6.84
2019-04-05T00:49:37.609Z,6.84
2019-04-05T00:50:31.853Z,6.87
2019-04-05T00:51:31.857Z,6.84
2019-04-05T00:52:31.358Z,6.87
2019-04-05T00:53:31.344Z,6.92
2019-04-05T00:54:31.330Z,6.87
2019-04-05T00:55:31.336Z,6.93
2019-04-05T00:56:31.550Z,6.93
2019-04-05T00:57:31.549Z,6.89
2019-04-05T00:58:31.790Z,6.97
2019-04-05T00:59:31.527Z,6.99
2019-04-05T01:00:31.775Z,7.03
2019-04-05T01:01:31.519Z,7.07
2019-04-05T01:02:31.786Z,7.14
2019-04-05T01:03:31.502Z,7.05
2019-04-05T01:04:31.734Z,7.11
2019-04-05T01:05:31.748Z,7.05
2019-04-05T01:06:31.737Z,7.14
2019-04-05T01:07:31.484Z,7.11
2019-04-05T01:08:31.486Z,7.18
2019-04-05T01:09:31.458Z,7.18
2019-04-05T01:10:31.707Z,7.11
2019-04-05T01:11:31.450Z,7.13
2019-04-05T01:12:32.140Z,7.17
2019-04-05T01:13:31.199Z,7.21
2019-04-05T01:14:31.679Z,7.15
2019-04-05T01:15:43.180Z,7.14
2019-04-05T01:16:31.421Z,7.14
2019-04-05T01:17:31.402Z,7.11
2019-04-05T01:18:31.402Z,7.06
2019-04-05T01:19:31.144Z,7.05
2019-04-05T01:20:31.451Z,7.05
2019-04-05T01:21:31.631Z,7.07
2019-04-05T01:22:31.119Z,7.11
2019-04-05T01:23:31.617Z,7.07
2019-04-05T01:24:31.608Z,7.02
2019-04-05T01:25:31.352Z,6.99
2019-04-05T01:26:31.361Z,6.99
2019-04-05T01:27:31.595Z,7.03
2019-04-05T01:28:31.327Z,7.02
2019-04-05T01:29:31.559Z,7
2019-04-05T01:30:31.317Z,7.02
2019-04-05T01:31:31.303Z,7.02
2019-04-05T01:32:31.289Z,7
2019-04-05T01:33:31.530Z,7.03
2019-04-05T01:34:31.049Z,6.97
2019-04-05T01:35:31.325Z,7.02
2019-04-05T01:36:31.565Z,7
2019-04-05T01:37:31.299Z,7.06
2019-04-05T01:38:31.253Z,7.13
2019-04-05T01:39:31.250Z,7
2019-04-05T01:40:31.002Z,7.1
2019-04-05T01:41:31.507Z,7.11
2019-04-05T01:42:31.469Z,7.07
2019-04-05T01:43:30.966Z,7.06
2019-04-05T01:44:30.955Z,7.02
2019-04-05T01:45:31.205Z,7.17
2019-04-05T01:46:30.944Z,7.11
2019-04-05T01:47:31.270Z,7.14
2019-04-05T01:48:31.223Z,7.1
2019-04-05T01:49:31.192Z,7.06
2019-04-05T01:50:31.437Z,7.07
2019-04-05T01:51:31.415Z,7.02
2019-04-05T01:52:31.164Z,7.13
2019-04-05T01:53:31.402Z,7.05
2019-04-05T01:54:33.652Z,7.03
2019-04-05T01:55:31.372Z,7.07
2019-04-05T01:56:31.131Z,7.05
2019-04-05T01:57:31.362Z,7.02
2019-04-05T01:58:31.104Z,7.05
2019-04-05T01:59:31.358Z,7.06
2019-04-05T02:00:31.109Z,7.07
2019-04-05T02:01:31.344Z,7.06
2019-04-05T02:02:31.082Z,7.02
2019-04-05T02:03:31.081Z,7.03
2019-04-05T02:04:30.819Z,7.14
2019-04-05T02:05:31.058Z,7.1
2019-04-05T02:06:30.820Z,7.21
2019-04-05T02:07:31.307Z,7.1
2019-04-05T02:08:31.279Z,7.13
2019-04-05T02:09:30.793Z,7.05
2019-04-05T02:10:31.038Z,7.11
2019-04-05T02:11:31.273Z,7.03
2019-04-05T02:12:31.254Z,7.13
2019-04-05T02:13:31.009Z,7.03
2019-04-05T02:14:31.241Z,7.02
2019-04-05T02:15:30.756Z,7.05
2019-04-05T02:16:31.245Z,7
2019-04-05T02:17:30.990Z,7.13
2019-04-05T02:18:31.216Z,7.13
2019-04-05T02:19:31.203Z,7.07
2019-04-05T02:20:31.348Z,7
2019-04-05T02:21:30.942Z,7.05
2019-04-05T02:22:31.207Z,7.07
2019-04-05T02:23:30.934Z,7.07
2019-04-05T02:24:31.170Z,7
2019-04-05T02:25:30.924Z,6.92
2019-04-05T02:26:30.914Z,6.88
2019-04-05T02:27:30.899Z,6.95
2019-04-05T02:28:30.909Z,6.88
2019-04-05T02:29:30.887Z,6.84
2019-04-05T02:30:31.133Z,6.89
2019-04-05T02:31:30.950Z,6.88
2019-04-05T02:32:30.879Z,6.93
2019-04-05T02:33:31.112Z,6.87
2019-04-05T02:34:30.858Z,6.93
2019-04-05T02:35:31.107Z,6.92
2019-04-05T02:36:31.074Z,6.92
2019-04-05T02:37:31.103Z,6.89
2019-04-05T02:38:30.821Z,6.88
2019-04-05T02:39:30.819Z,6.87
2019-04-05T02:40:31.072Z,6.88
2019-04-05T02:41:30.813Z,6.89
2019-04-05T02:42:30.808Z,6.93
2019-04-05T02:43:30.552Z,6.93
2019-04-05T02:44:31.035Z,6.88
2019-04-05T02:45:31.011Z,6.92
2019-04-05T02:46:31.027Z,6.93
2019-04-05T02:47:30.756Z,6.92
2019-04-05T02:48:30.574Z,6.85
2019-04-05T02:49:31.007Z,6.88
2019-04-05T02:50:31.805Z,6.88
2019-04-05T02:51:30.979Z,6.93
2019-04-05T02:52:30.973Z,6.87
2019-04-05T02:53:30.953Z,6.85
2019-04-05T02:54:30.953Z,6.85
2019-04-05T02:55:30.695Z,6.85
2019-04-05T02:56:30.951Z,6.81
2019-04-05T02:57:30.671Z,6.81
2019-04-05T02:58:30.929Z,6.87
2019-04-05T02:59:30.756Z,6.75
2019-04-05T03:00:30.927Z,6.82
2019-04-05T03:01:30.653Z,6.74
2019-04-05T03:02:30.650Z,6.81
2019-04-05T03:03:30.905Z,6.77
2019-04-05T03:04:30.641Z,6.78
2019-04-05T03:05:30.878Z,6.77
2019-04-05T03:06:30.626Z,6.89
2019-04-05T03:07:30.601Z,6.88
2019-04-05T03:08:30.367Z,6.88
2019-04-05T03:09:30.849Z,6.88
2019-04-05T03:10:30.826Z,6.79
2019-04-05T03:11:30.813Z,6.92
2019-04-05T03:12:30.839Z,6.92
2019-04-05T03:13:30.810Z,6.84
2019-04-05T03:14:30.556Z,6.93
2019-04-05T03:15:30.596Z,6.89
2019-04-05T03:16:44.895Z,6.88
2019-04-05T03:17:30.769Z,6.89
2019-04-05T03:18:30.901Z,6.93
2019-04-05T03:19:30.539Z,6.87
2019-04-05T03:20:30.903Z,6.79
2019-04-05T03:21:30.783Z,6.82
2019-04-05T03:22:30.758Z,6.81
2019-04-05T03:23:30.728Z,6.84
2019-04-05T03:24:30.753Z,6.89
2019-04-05T03:25:30.482Z,6.78
2019-04-05T03:26:30.729Z,6.85
2019-04-05T03:27:30.467Z,6.88
2019-04-05T03:28:30.701Z,6.75
2019-04-05T03:29:30.681Z,6.78
2019-04-05T03:30:30.456Z,6.88
2019-04-05T03:31:31.038Z,6.81
2019-04-05T03:32:30.692Z,6.74
2019-04-05T03:33:30.475Z,6.84
2019-04-05T03:34:30.677Z,6.88
2019-04-05T03:35:30.686Z,6.78
2019-04-05T03:36:30.383Z,6.87
2019-04-05T03:37:30.383Z,6.84
2019-04-05T03:38:30.112Z,6.89
2019-04-05T03:39:30.708Z,6.92
2019-04-05T03:40:30.614Z,6.95
2019-04-05T03:41:30.341Z,6.95
2019-04-05T03:42:30.346Z,6.93
2019-04-05T03:43:30.591Z,6.89
2019-04-05T03:44:30.598Z,6.87
2019-04-05T03:45:30.334Z,6.85
2019-04-05T03:46:30.582Z,6.75
2019-04-05T03:47:30.593Z,6.85
2019-04-05T03:48:30.557Z,6.88
2019-04-05T03:49:30.277Z,6.75
2019-04-05T03:50:30.280Z,6.77
2019-04-05T03:51:30.562Z,6.77
2019-04-05T03:52:30.559Z,6.84
2019-04-05T03:53:30.258Z,6.87
2019-04-05T03:54:30.004Z,6.87
2019-04-05T03:55:30.243Z,6.88
2019-04-05T03:56:30.501Z,6.77
2019-04-05T03:57:30.217Z,6.82
2019-04-05T03:58:30.238Z,6.85
2019-04-05T03:59:30.479Z,6.78
2019-04-05T04:00:30.240Z,6.77
2019-04-05T04:01:30.459Z,6.77
2019-04-05T04:02:30.191Z,6.69
2019-04-05T04:03:30.453Z,6.75
2019-04-05T04:04:30.180Z,6.74
2019-04-05T04:05:30.486Z,6.66
2019-04-05T04:06:30.196Z,6.7
2019-04-05T04:07:30.433Z,6.74
2019-04-05T04:08:30.399Z,6.75
2019-04-05T04:09:30.191Z,6.79
2019-04-05T04:10:30.147Z,6.78
2019-04-05T04:11:30.368Z,6.82
2019-04-05T04:12:30.380Z,6.74
2019-04-05T04:13:30.366Z,6.7
2019-04-05T04:14:30.369Z,6.74
2019-04-05T04:15:30.347Z,6.75
2019-04-05T04:16:30.106Z,6.74
2019-04-05T04:17:30.331Z,6.69
2019-04-05T04:18:30.127Z,6.72
2019-04-05T04:19:30.058Z,6.74
2019-04-05T04:20:30.045Z,6.77
2019-04-05T04:21:30.352Z,6.81
2019-04-05T04:22:30.293Z,6.72
2019-04-05T04:23:30.311Z,6.84
2019-04-05T04:24:30.263Z,6.87
2019-04-05T04:25:30.274Z,6.84
2019-04-05T04:26:30.255Z,6.77
2019-04-05T04:27:30.251Z,6.81
2019-04-05T04:28:30.006Z,6.78
2019-04-05T04:29:30.243Z,6.78
2019-04-05T04:30:29.978Z,6.7
2019-04-05T04:31:30.231Z,6.72
2019-04-05T04:32:30.220Z,6.81
2019-04-05T04:33:29.962Z,6.89
2019-04-05T04:34:30.228Z,6.87
2019-04-05T04:35:29.951Z,6.87
2019-04-05T04:36:29.957Z,6.88
2019-04-05T04:37:30.174Z,6.92
2019-04-05T04:38:29.924Z,6.84
2019-04-05T04:39:30.155Z,6.84
2019-04-05T04:40:29.896Z,6.79
2019-04-05T04:41:34.010Z,6.88
2019-04-05T04:42:30.140Z,6.85
2019-04-05T04:43:29.895Z,6.75
2019-04-05T04:44:29.873Z,6.77
2019-04-05T04:45:29.618Z,6.87
2019-04-05T04:46:30.112Z,6.89
2019-04-05T04:47:31.882Z,6.89
2019-04-05T04:48:30.101Z,6.87
2019-04-05T04:49:29.606Z,6.92
2019-04-05T04:50:30.070Z,6.87
2019-04-05T04:51:30.305Z,6.97
2019-04-05T04:52:31.408Z,6.92
2019-04-05T04:53:30.047Z,6.87
2019-04-05T04:54:29.797Z,6.95
2019-04-05T04:55:30.064Z,6.88
2019-04-05T04:56:29.552Z,6.99
2019-04-05T04:57:30.013Z,7
2019-04-05T04:58:30.019Z,6.97
2019-04-05T04:59:30.011Z,6.99
2019-04-05T05:00:29.755Z,6.97
2019-04-05T05:01:29.759Z,7.07
2019-04-05T05:02:29.757Z,7.02
2019-04-05T05:03:29.976Z,7.07
2019-04-05T05:04:29.974Z,7.06
2019-04-05T05:05:29.967Z,7.07
2019-04-05T05:06:29.702Z,7.03
2019-04-05T05:07:29.940Z,7.06
2019-04-05T05:08:29.947Z,6.99
2019-04-05T05:09:29.922Z,6.99
2019-04-05T05:10:29.932Z,7
2019-04-05T05:11:29.663Z,7.03
2019-04-05T05:12:29.659Z,7
2019-04-05T05:13:29.653Z,7.07
2019-04-05T05:14:29.663Z,7.11
2019-04-05T05:15:31.939Z,7
2019-04-05T05:16:29.875Z,7
2019-04-05T05:17:42.506Z,7.13
2019-04-05T05:18:29.631Z,7.1
2019-04-05T05:19:29.605Z,7.06
2019-04-05T05:20:29.593Z,7.1
2019-04-05T05:21:30.668Z,7.07
2019-04-05T05:22:29.607Z,7.05
2019-04-05T05:23:29.581Z,7
2019-04-05T05:24:30.050Z,7.06
2019-04-05T05:25:29.801Z,7
2019-04-05T05:26:29.563Z,7.11
2019-04-05T05:27:29.808Z,7.05
2019-04-05T05:28:32.551Z,6.99
2019-04-05T05:29:29.800Z,7.03
2019-04-05T05:30:29.276Z,6.97
2019-04-05T05:31:29.760Z,6.99
2019-04-05T05:32:29.513Z,6.99
2019-04-05T05:33:29.514Z,6.89
2019-04-05T05:34:29.501Z,6.89
2019-04-05T05:35:29.490Z,6.93
2019-04-05T05:36:29.723Z,6.87
2019-04-05T05:37:32.628Z,6.96
2019-04-05T05:38:29.708Z,6.87
2019-04-05T05:39:29.703Z,6.81
2019-04-05T05:40:39.907Z,6.87
2019-04-05T05:41:29.686Z,6.87
2019-04-05T05:42:29.427Z,6.87
2019-04-05T05:43:29.667Z,6.77
2019-04-05T05:44:29.662Z,6.79
2019-04-05T05:45:29.167Z,6.77
2019-04-05T05:46:29.713Z,6.87
2019-04-05T05:47:29.647Z,6.89
2019-04-05T05:48:30.916Z,6.88
2019-04-05T05:49:29.683Z,6.92
2019-04-05T05:50:29.624Z,6.89
2019-04-05T05:51:29.511Z,6.93
2019-04-05T05:52:29.612Z,6.87
2019-04-05T05:53:29.364Z,6.95
2019-04-05T05:54:29.361Z,6.99
2019-04-05T05:55:32.461Z,7.07
2019-04-05T05:56:29.569Z,7.1
2019-04-05T05:57:29.604Z,7.02
2019-04-05T05:58:31.180Z,7
2019-04-05T05:59:32.160Z,7.06
2019-04-05T06:00:32.781Z,7.06
2019-04-05T06:01:29.530Z,7.13
2019-04-05T06:02:29.525Z,7.07
2019-04-05T06:03:29.273Z,7.06
2019-04-05T06:04:29.256Z,7.14
2019-04-05T06:05:29.510Z,7.21
2019-04-05T06:06:29.244Z,7.29
2019-04-05T06:07:29.491Z,7.28
2019-04-05T06:08:31.696Z,7.33
2019-04-05T06:09:29.500Z,7.35
2019-04-05T06:10:29.479Z,7.35
2019-04-05T06:11:29.464Z,7.28
2019-04-05T06:12:29.211Z,7.14
2019-04-05T06:13:29.274Z,7.2
2019-04-05T06:14:29.201Z,7.17
2019-04-05T06:15:29.185Z,7.21
2019-04-05T06:16:29.181Z,7.28
2019-04-05T06:17:29.417Z,7.33
2019-04-05T06:18:29.185Z,7.36
2019-04-05T06:19:29.170Z,7.32
2019-04-05T06:20:29.426Z,7.45
2019-04-05T06:21:32.730Z,7.42
2019-04-05T06:22:29.390Z,7.36
2019-04-05T06:23:38.352Z,7.38
2019-04-05T06:24:29.142Z,7.39
2019-04-05T06:25:29.380Z,7.42
2019-04-05T06:26:29.135Z,7.4
2019-04-05T06:27:29.103Z,7.47
2019-04-05T06:28:29.431Z,7.39
2019-04-05T06:29:29.327Z,7.4
2019-04-05T06:30:31.252Z,7.32
2019-04-05T06:31:29.071Z,7.38
2019-04-05T06:32:29.079Z,7.42
2019-04-05T06:33:38.291Z,7.51
2019-04-05T06:34:29.051Z,7.43
2019-04-05T06:35:29.288Z,7.51
2019-04-05T06:36:29.036Z,7.53
2019-04-05T06:37:29.040Z,7.58
2019-04-05T06:38:29.267Z,7.61
2019-04-05T06:39:29.345Z,7.58
2019-04-05T06:40:42.201Z,7.53
2019-04-05T06:41:29.015Z,7.56
2019-04-05T06:42:29.244Z,7.57
2019-04-05T06:43:29.295Z,7.58
2019-04-05T06:44:30.315Z,7.6
2019-04-05T06:45:29.237Z,7.6
2019-04-05T06:46:29.219Z,7.57
2019-04-05T06:47:29.214Z,7.58
2019-04-05T06:48:31.887Z,7.63
2019-04-05T06:49:29.220Z,7.6
2019-04-05T06:50:28.973Z,7.54
2019-04-05T06:51:29.203Z,7.53
2019-04-05T06:52:28.681Z,7.51
2019-04-05T06:53:29.171Z,7.45
2019-04-05T06:54:28.919Z,7.43
2019-04-05T06:55:29.156Z,7.43
2019-04-05T06:56:28.904Z,7.48
2019-04-05T06:57:29.153Z,7.47
2019-04-05T06:58:33.687Z,7.5
2019-04-05T06:59:29.144Z,7.48
2019-04-05T07:00:28.697Z,7.4
2019-04-05T07:01:28.867Z,7.38
2019-04-05T07:02:28.866Z,7.35
2019-04-05T07:03:28.872Z,7.29
2019-04-05T07:04:30.973Z,7.24
2019-04-05T07:05:28.598Z,7.25
2019-04-05T07:06:29.079Z,7.2
2019-04-05T07:07:28.840Z,7.13
2019-04-05T07:08:28.583Z,7.15
2019-04-05T07:09:28.820Z,7.15
2019-04-05T07:10:28.797Z,7.33
2019-04-05T07:11:29.048Z,7.29
2019-04-05T07:12:29.053Z,7.38
2019-04-05T07:13:31.928Z,7.38
2019-04-05T07:14:28.529Z,7.48
2019-04-05T07:15:28.778Z,7.45
2019-04-05T07:16:28.525Z,7.58
2019-04-05T07:17:28.761Z,7.5
2019-04-05T07:18:38.986Z,7.5
2019-04-05T07:19:28.499Z,7.48
2019-04-05T07:20:28.744Z,7.54
2019-04-05T07:21:28.976Z,7.48
2019-04-05T07:22:42.676Z,7.47
2019-04-05T07:23:28.734Z,7.54
2019-04-05T07:24:28.710Z,7.5
2019-04-05T07:25:31.683Z,7.45
2019-04-05T07:26:28.943Z,7.5
2019-04-05T07:27:28.957Z,7.5
2019-04-05T07:28:29.828Z,7.5
2019-04-05T07:29:28.678Z,7.48
2019-04-05T07:30:32.578Z,7.48
2019-04-05T07:31:28.998Z,7.48
2019-04-05T07:32:31.210Z,7.47
2019-04-05T07:33:28.659Z,7.57
2019-04-05T07:34:28.882Z,7.53
2019-04-05T07:35:38.413Z,7.63
2019-04-05T07:36:28.622Z,7.57
2019-04-05T07:37:31.023Z,7.77
2019-04-05T07:38:28.617Z,7.85
2019-04-05T07:39:28.848Z,7.83
2019-04-05T07:40:28.621Z,7.88
2019-04-05T07:41:28.586Z,7.88
2019-04-05T07:42:28.846Z,7.97
2019-04-05T07:43:28.337Z,7.93
2019-04-05T07:44:28.820Z,7.91
2019-04-05T07:45:28.815Z,7.94
2019-04-05T07:46:28.815Z,7.94
2019-04-05T07:47:28.805Z,7.97
2019-04-05T07:48:28.798Z,7.9
2019-04-05T07:49:28.799Z,7.85
2019-04-05T07:50:28.801Z,8
2019-04-05T07:51:28.598Z,8.01
2019-04-05T07:52:29.080Z,8.1
2019-04-05T07:53:28.790Z,8.15
2019-04-05T07:54:28.502Z,8.3
2019-04-05T07:55:28.267Z,8.42
2019-04-05T07:56:28.253Z,8.52
2019-04-05T07:57:28.747Z,8.55
2019-04-05T07:58:28.835Z,8.55
2019-04-05T07:59:28.482Z,8.58
2019-04-05T08:00:28.472Z,8.52
2019-04-05T08:01:28.716Z,8.53
2019-04-05T08:02:28.466Z,8.55
2019-04-05T08:03:28.695Z,8.67
2019-04-05T08:04:28.697Z,8.58
2019-04-05T08:05:28.438Z,8.51
2019-04-05T08:06:28.441Z,8.52
2019-04-05T08:07:28.697Z,8.52
2019-04-05T08:08:28.449Z,8.53
2019-04-05T08:09:28.668Z,8.52
2019-04-05T08:10:28.422Z,8.58
2019-04-05T08:11:28.219Z,8.69
2019-04-05T08:12:28.403Z,8.69
2019-04-05T08:13:28.393Z,8.73
2019-04-05T08:14:28.435Z,8.6
2019-04-05T08:15:28.382Z,8.53
2019-04-05T08:16:28.623Z,8.42
2019-04-05T08:17:28.125Z,8.42
2019-04-05T08:18:28.613Z,8.31
2019-04-05T08:19:28.384Z,8.28
2019-04-05T08:20:30.156Z,8.31
2019-04-05T08:21:28.660Z,8.36
2019-04-05T08:22:28.360Z,8.38
2019-04-05T08:23:28.583Z,8.49
2019-04-05T08:24:28.582Z,8.53
2019-04-05T08:25:28.326Z,8.55
2019-04-05T08:26:28.343Z,8.55
2019-04-05T08:27:28.567Z,8.46
2019-04-05T08:28:29.743Z,8.48
2019-04-05T08:29:28.554Z,8.52
2019-04-05T08:30:28.570Z,8.52
2019-04-05T08:31:28.539Z,8.55
2019-04-05T08:32:28.538Z,8.51
2019-04-05T08:33:28.293Z,8.38
2019-04-05T08:34:28.514Z,8.41
2019-04-05T08:35:28.276Z,8.45
2019-04-05T08:36:28.262Z,8.55
2019-04-05T08:37:28.279Z,8.56
2019-04-05T08:38:28.266Z,8.58
2019-04-05T08:39:28.493Z,8.63
2019-04-05T08:40:28.255Z,8.82
2019-04-05T08:41:28.543Z,8.76
2019-04-05T08:42:28.523Z,8.79
2019-04-05T08:43:28.232Z,8.73
2019-04-05T08:44:28.465Z,8.74
2019-04-05T08:45:28.226Z,8.73
2019-04-05T08:46:28.450Z,8.88
2019-04-05T08:47:28.212Z,8.88
2019-04-05T08:48:28.657Z,8.88
2019-04-05T08:49:28.214Z,8.79
2019-04-05T08:50:28.183Z,8.71
2019-04-05T08:51:28.209Z,8.79
2019-04-05T08:52:29.567Z,8.81
2019-04-05T08:53:28.162Z,8.74
2019-04-05T08:54:39.436Z,8.79
2019-04-05T08:55:28.443Z,8.78
2019-04-05T08:56:28.420Z,8.76
2019-04-05T08:57:28.387Z,8.74
2019-04-05T08:58:38.067Z,8.71
2019-04-05T08:59:28.372Z,8.78
2019-04-05T09:00:28.366Z,8.71
2019-04-05T09:01:28.377Z,8.63
2019-04-05T09:02:28.134Z,8.7
2019-04-05T09:03:28.135Z,8.73
2019-04-05T09:04:28.392Z,8.7
2019-04-05T09:05:28.098Z,8.79
2019-04-05T09:06:28.335Z,8.99
2019-04-05T09:07:28.332Z,9
2019-04-05T09:08:28.137Z,9.06
2019-04-05T09:09:28.347Z,9.14
2019-04-05T09:10:28.320Z,9.19
2019-04-05T09:11:28.318Z,9.18
2019-04-05T09:12:28.316Z,9.14
2019-04-05T09:13:28.049Z,9.29
2019-04-05T09:14:28.321Z,9.46
2019-04-05T09:15:28.113Z,9.5
2019-04-05T09:16:28.068Z,9.54
2019-04-05T09:17:28.284Z,9.66
2019-04-05T09:18:28.027Z,9.73
2019-04-05T09:19:28.977Z,9.72
2019-04-05T09:20:28.266Z,9.69
2019-04-05T09:21:28.263Z,9.62
2019-04-05T09:22:27.769Z,9.61
2019-04-05T09:23:28.012Z,9.55
2019-04-05T09:24:28.011Z,9.5
2019-04-05T09:25:27.756Z,9.62
2019-04-05T09:26:28.254Z,9.83
2019-04-05T09:27:28.241Z,9.92
2019-04-05T09:28:28.232Z,9.92
2019-04-05T09:29:28.227Z,10.05
2019-04-05T09:30:28.228Z,10.07
2019-04-05T09:31:28.037Z,10.07
2019-04-05T09:32:27.967Z,10.23
2019-04-05T09:33:27.959Z,10.44
2019-04-05T09:34:27.965Z,10.61
2019-04-05T09:35:28.204Z,10.38
2019-04-05T09:36:28.208Z,10.28
2019-04-05T09:37:27.948Z,10.26
2019-04-05T09:38:28.197Z,10.33
2019-04-05T09:39:28.001Z,10.51
2019-04-05T09:40:27.946Z,10.79
2019-04-05T09:41:27.926Z,10.93
2019-04-05T09:42:28.179Z,11.15
2019-04-05T09:43:27.956Z,11.36
2019-04-05T09:44:28.746Z,11.36
2019-04-05T09:45:28.180Z,11.36
2019-04-05T09:46:28.215Z,11.57
2019-04-05T09:47:28.172Z,11.63
2019-04-05T09:48:28.233Z,11.78
2019-04-05T09:49:40.852Z,11.94
2019-04-05T09:50:27.925Z,11.9
2019-04-05T09:51:27.934Z,11.8
2019-04-05T09:52:27.916Z,11.62
2019-04-05T09:53:29.758Z,11.41
2019-04-05T09:54:28.190Z,11.29
2019-04-05T09:55:27.903Z,11.1
2019-04-05T09:56:28.150Z,11.02
2019-04-05T09:57:28.147Z,10.93
2019-04-05T09:58:27.637Z,10.89
2019-04-05T09:59:27.896Z,10.86
2019-04-05T10:00:27.923Z,11.02
2019-04-05T10:01:28.131Z,11.23
2019-04-05T10:02:27.880Z,11.47
2019-04-05T10:03:28.209Z,11.59
2019-04-05T10:04:30.941Z,11.51
2019-04-05T10:05:28.139Z,11.48
2019-04-05T10:06:28.126Z,11.23
2019-04-05T10:07:27.869Z,11.05
2019-04-05T10:08:28.136Z,11.08
2019-04-05T10:09:28.118Z,11.1
2019-04-05T10:10:28.177Z,11.12
2019-04-05T10:11:27.874Z,11.23
2019-04-05T10:12:28.111Z,11.19
2019-04-05T10:13:27.880Z,11.17
2019-04-05T10:14:27.862Z,11.29
2019-04-05T10:15:27.876Z,11.48
2019-04-05T10:16:27.601Z,11.65
2019-04-05T10:17:27.861Z,11.72
2019-04-05T10:18:27.838Z,11.62
2019-04-05T10:19:27.629Z,11.43
2019-04-05T10:20:28.098Z,11.23
2019-04-05T10:21:27.855Z,11.04
2019-04-05T10:22:28.099Z,11.07
2019-04-05T10:23:27.828Z,11.1
2019-04-05T10:24:27.589Z,11.12
2019-04-05T10:25:28.086Z,11.08
2019-04-05T10:26:28.069Z,10.99
2019-04-05T10:27:27.823Z,10.86
2019-04-05T10:28:27.832Z,10.74
2019-04-05T10:29:28.071Z,10.61
2019-04-05T10:30:28.070Z,10.51
2019-04-05T10:31:28.069Z,10.61
2019-04-05T10:32:28.072Z,10.67
2019-04-05T10:33:27.824Z,10.74
2019-04-05T10:34:28.047Z,10.99
2019-04-05T10:35:27.828Z,11.4
2019-04-05T10:36:28.041Z,11.52
2019-04-05T10:37:27.799Z,11.9
2019-04-05T10:38:27.555Z,12.17
2019-04-05T10:39:28.059Z,12.37
2019-04-05T10:40:28.037Z,12.58
2019-04-05T10:41:28.053Z,12.9
2019-04-05T10:42:27.791Z,13.04
2019-04-05T10:43:28.036Z,12.98
2019-04-05T10:44:27.775Z,12.98
2019-04-05T10:45:27.764Z,13.01
2019-04-05T10:46:27.773Z,13.08
2019-04-05T10:47:27.551Z,13.01
2019-04-05T10:48:27.771Z,12.98
2019-04-05T10:49:28.014Z,13.01
2019-04-05T10:50:27.781Z,12.94
2019-04-05T10:51:28.031Z,12.98
2019-04-05T10:52:27.764Z,13.01
2019-04-05T10:53:28.809Z,13.01
2019-04-05T10:54:28.006Z,12.98
2019-04-05T10:55:27.759Z,13.04
2019-04-05T10:56:27.773Z,13.18
2019-04-05T10:57:28.034Z,13.31
2019-04-05T10:58:28.066Z,13.39
2019-04-05T10:59:27.833Z,13.57
2019-04-05T11:00:27.763Z,13.52
2019-04-05T11:01:27.755Z,13.57
2019-04-05T11:02:27.992Z,13.47
2019-04-05T11:03:27.757Z,13.41
2019-04-05T11:04:27.767Z,13.47
2019-04-05T11:05:27.749Z,13.53
2019-04-05T11:06:28.000Z,13.39
2019-04-05T11:07:27.487Z,13.38
2019-04-05T11:08:27.744Z,13.01
2019-04-05T11:09:28.022Z,13
2019-04-05T11:10:27.741Z,12.79
2019-04-05T11:11:27.742Z,12.86
2019-04-05T11:12:27.748Z,13.03
2019-04-05T11:13:27.991Z,13
2019-04-05T11:14:27.498Z,12.87
2019-04-05T11:15:28.735Z,12.93
2019-04-05T11:16:27.983Z,12.97
2019-04-05T11:17:27.483Z,12.97
2019-04-05T11:18:27.726Z,13.03
2019-04-05T11:19:27.981Z,13
2019-04-05T11:20:27.987Z,12.8
2019-04-05T11:21:27.952Z,12.6
2019-04-05T11:22:27.960Z,12.45
2019-04-05T11:23:27.990Z,12.35
2019-04-05T11:24:27.712Z,12.27
2019-04-05T11:25:27.970Z,12.22
2019-04-05T11:26:27.955Z,12.13
2019-04-05T11:27:27.972Z,12.06
2019-04-05T11:28:27.956Z,11.91
2019-04-05T11:29:27.710Z,11.77
2019-04-05T11:30:29.451Z,11.83
2019-04-05T11:31:27.953Z,11.97
2019-04-05T11:32:27.966Z,12.1
2019-04-05T11:33:27.695Z,12.17
2019-04-05T11:34:27.714Z,12.24
2019-04-05T11:35:27.688Z,12.22
2019-04-05T11:36:27.522Z,12.35
2019-04-05T11:37:27.701Z,12.22
2019-04-05T11:38:29.010Z,12.43
2019-04-05T11:39:27.952Z,12.54
2019-04-05T11:40:29.022Z,12.47
2019-04-05T11:41:27.436Z,12.58
2019-04-05T11:42:27.941Z,12.64
2019-04-05T11:43:33.711Z,12.57
2019-04-05T11:44:27.783Z,12.42
2019-04-05T11:45:27.666Z,12.36
2019-04-05T11:46:27.703Z,12.28
2019-04-05T11:47:27.938Z,12.06
2019-04-05T11:48:28.221Z,12.02
2019-04-05T11:49:27.918Z,11.97
2019-04-05T11:50:39.173Z,12.02
2019-04-05T11:51:27.913Z,12.02
2019-04-05T11:52:27.675Z,12.03
2019-04-05T11:53:27.916Z,12.12
2019-04-05T11:54:27.899Z,12.28
2019-04-05T11:55:27.911Z,12.27
2019-04-05T11:56:27.642Z,12.39
2019-04-05T11:57:27.655Z,12.47
2019-04-05T11:58:27.659Z,12.29
2019-04-05T11:59:27.904Z,12.37
2019-04-05T12:00:27.905Z,12.17
2019-04-05T12:01:28.499Z,12.21
2019-04-05T12:02:27.905Z,12.09
2019-04-05T12:03:27.908Z,11.99
2019-04-05T12:04:27.649Z,11.78
2019-04-05T12:05:31.148Z,11.75
2019-04-05T12:06:27.640Z,11.86
2019-04-05T12:07:30.944Z,11.84
2019-04-05T12:08:27.642Z,12.09
2019-04-05T12:09:27.876Z,12.13
2019-04-05T12:10:27.876Z,12.09
2019-04-05T12:11:27.617Z,12.21
2019-04-05T12:12:30.414Z,12.2
2019-04-05T12:13:27.602Z,12.25
2019-04-05T12:14:38.888Z,12.28
2019-04-05T12:15:27.616Z,12.37
2019-04-05T12:16:27.605Z,12.29
2019-04-05T12:17:27.866Z,12.22
2019-04-05T12:18:27.604Z,12.06
2019-04-05T12:19:27.850Z,11.83
2019-04-05T12:20:27.847Z,11.7
2019-04-05T12:21:27.588Z,11.52
2019-04-05T12:22:27.598Z,11.51
2019-04-05T12:23:27.356Z,11.54
2019-04-05T12:24:32.338Z,11.52
2019-04-05T12:25:27.825Z,11.62
2019-04-05T12:26:27.824Z,11.62
2019-04-05T12:27:27.827Z,11.72
2019-04-05T12:28:27.577Z,11.54
2019-04-05T12:29:27.825Z,11.52
2019-04-05T12:30:27.885Z,11.44
2019-04-05T12:31:27.759Z,11.33
2019-04-05T12:32:43.417Z,11.44
2019-04-05T12:33:27.805Z,11.25
2019-04-05T12:34:30.956Z,11.27
2019-04-05T12:35:27.819Z,11.15
2019-04-05T12:36:27.542Z,11.22
2019-04-05T12:37:27.797Z,11.22
2019-04-05T12:38:35.058Z,11.23
2019-04-05T12:39:27.793Z,11.33
2019-04-05T12:40:27.553Z,11.35
2019-04-05T12:41:27.529Z,11.4
2019-04-05T12:42:27.542Z,11.35
2019-04-05T12:43:27.768Z,11.3
2019-04-05T12:44:27.530Z,11.23
2019-04-05T12:45:27.518Z,11.17
2019-04-05T12:46:27.775Z,11.12
2019-04-05T12:47:27.516Z,11.12
2019-04-05T12:48:27.497Z,11.04
2019-04-05T12:49:27.765Z,10.97
2019-04-05T12:50:27.753Z,10.96
2019-04-05T12:51:27.522Z,10.97
2019-04-05T12:52:32.104Z,10.97
2019-04-05T12:53:30.797Z,10.92
2019-04-05T12:54:31.992Z,11.02
2019-04-05T12:55:29.186Z,11.17
2019-04-05T12:56:30.982Z,11.17
2019-04-05T12:57:30.012Z,11.26
2019-04-05T12:58:32.660Z,11.14
2019-04-05T12:59:30.272Z,11.22
2019-04-05T13:00:30.585Z,11.27
2019-04-05T13:01:27.459Z,11.23
2019-04-05T13:02:38.066Z,11.35
2019-04-05T13:03:27.699Z,11.4
2019-04-05T13:04:27.694Z,11.26
2019-04-05T13:05:27.737Z,11.4
2019-04-05T13:06:27.694Z,11.45
2019-04-05T13:07:28.013Z,11.37
2019-04-05T13:08:28.473Z,11.4
2019-04-05T13:09:29.129Z,11.43
2019-04-05T13:10:32.815Z,11.48
2019-04-05T13:11:30.294Z,11.43
2019-04-05T13:12:31.117Z,11.59
2019-04-05T13:13:31.667Z,11.47
2019-04-05T13:14:30.919Z,11.37